createdAt,value
2023-07-01T00:00:56.341Z,1434.00
2023-07-01T00:01:56.510Z,1438.00
2023-07-01T00:02:56.477Z,1442.00
2023-07-01T00:03:56.594Z,1442.00
2023-07-01T00:04:56.620Z,1435.00
2023-07-01T00:05:56.654Z,1424.00
2023-07-01T00:06:56.872Z,1439.00
2023-07-01T00:07:56.756Z,1439.00
2023-07-01T00:08:56.808Z,1442.00
2023-07-01T00:09:56.848Z,1427.00
2023-07-01T00:10:56.922Z,1420.00
2023-07-01T00:11:56.925Z,1435.00
2023-07-01T00:12:57.010Z,1427.00
2023-07-01T00:13:57.072Z,1442.00
2023-07-01T00:14:57.083Z,1424.00
2023-07-01T00:15:57.320Z,1439.00
2023-07-01T00:16:57.196Z,1425.00
2023-07-01T00:17:57.314Z,1423.00
2023-07-01T00:18:57.295Z,1424.00
2023-07-01T00:19:57.304Z,1424.00
2023-07-01T00:20:57.372Z,1412.00
2023-07-01T00:21:57.383Z,1420.00
2023-07-01T00:22:57.422Z,1417.00
2023-07-01T00:23:57.456Z,1406.00
2023-07-01T00:24:57.498Z,1404.00
2023-07-01T00:25:57.540Z,1400.00
2023-07-01T00:26:57.587Z,1415.00
2023-07-01T00:27:57.629Z,1391.00
2023-07-01T00:28:57.662Z,1388.00
2023-07-01T00:29:57.741Z,1392.00
2023-07-01T00:30:57.841Z,1391.00
2023-07-01T00:31:57.868Z,1381.00
2023-07-01T00:32:57.943Z,1376.00
2023-07-01T00:33:57.973Z,1394.00
2023-07-01T00:34:58.011Z,1389.00
2023-07-01T00:35:58.081Z,1381.00
2023-07-01T00:36:58.132Z,1386.00
2023-07-01T00:37:58.122Z,1366.00
2023-07-01T00:38:58.200Z,1374.00
2023-07-01T00:39:58.260Z,1368.00
2023-07-01T00:40:58.248Z,1362.00
2023-07-01T00:41:58.361Z,1346.00
2023-07-01T00:42:58.320Z,1348.00
2023-07-01T00:43:58.393Z,1364.00
2023-07-01T00:44:58.451Z,1349.00
2023-07-01T00:45:58.520Z,1346.00
2023-07-01T00:46:58.513Z,1355.00
2023-07-01T00:47:58.586Z,1345.00
2023-07-01T00:48:58.586Z,1356.00
2023-07-01T00:49:58.586Z,1344.00
2023-07-01T00:50:58.687Z,1334.00
2023-07-01T00:51:58.694Z,1343.00
2023-07-01T00:52:58.686Z,1331.00
2023-07-01T00:53:58.682Z,1330.00
2023-07-01T00:54:58.727Z,1342.00
2023-07-01T00:55:58.769Z,1323.00
2023-07-01T00:56:58.786Z,1322.00
2023-07-01T00:57:58.792Z,1327.00
2023-07-01T00:58:58.781Z,1313.00
2023-07-01T00:59:58.792Z,1319.00
2023-07-01T01:00:58.785Z,1303.00
2023-07-01T01:01:58.774Z,1325.00
2023-07-01T01:02:58.866Z,1299.00
2023-07-01T01:03:58.777Z,1300.00
2023-07-01T01:04:58.803Z,1313.00
2023-07-01T01:05:58.807Z,1305.00
2023-07-01T01:06:58.853Z,1297.00
2023-07-01T01:08:00.780Z,1298.00
2023-07-01T01:08:58.943Z,1301.00
2023-07-01T01:09:58.942Z,1301.00
2023-07-01T01:10:58.950Z,1300.00
2023-07-01T01:11:58.956Z,1291.00
2023-07-01T01:12:58.940Z,1313.00
2023-07-01T01:13:58.965Z,1298.00
2023-07-01T01:14:58.974Z,1302.00
2023-07-01T01:15:59.053Z,1293.00
2023-07-01T01:16:59.041Z,1293.00
2023-07-01T01:17:59.070Z,1290.00
2023-07-01T01:18:59.001Z,1311.00
2023-07-01T01:19:59.036Z,1294.00
2023-07-01T01:20:59.015Z,1292.00
2023-07-01T01:22:00.183Z,1298.00
2023-07-01T01:22:59.028Z,1297.00
2023-07-01T01:23:59.011Z,1291.00
2023-07-01T01:24:59.051Z,1294.00
2023-07-01T01:25:59.099Z,1284.00
2023-07-01T01:26:59.077Z,1291.00
2023-07-01T01:27:59.108Z,1271.00
2023-07-01T01:28:59.097Z,1290.00
2023-07-01T01:29:59.105Z,1295.00
2023-07-01T01:30:59.125Z,1278.00
2023-07-01T01:31:59.385Z,1280.00
2023-07-01T01:32:59.144Z,1273.00
2023-07-01T01:33:59.138Z,1290.00
2023-07-01T01:34:59.160Z,1273.00
2023-07-01T01:35:59.209Z,1282.00
2023-07-01T01:36:59.383Z,1275.00
2023-07-01T01:37:59.229Z,1285.00
2023-07-01T01:38:59.286Z,1293.00
2023-07-01T01:39:59.271Z,1274.00
2023-07-01T01:40:59.305Z,1265.00
2023-07-01T01:41:59.395Z,1276.00
2023-07-01T01:42:59.307Z,1287.00
2023-07-01T01:43:59.356Z,1278.00
2023-07-01T01:44:59.407Z,1276.00
2023-07-01T01:45:59.379Z,1285.00
2023-07-01T01:46:59.438Z,1282.00
2023-07-01T01:47:59.427Z,1286.00
2023-07-01T01:48:59.394Z,1265.00
2023-07-01T01:49:59.412Z,1252.00
2023-07-01T01:50:59.420Z,1270.00
2023-07-01T01:51:59.443Z,1277.00
2023-07-01T01:52:59.451Z,1262.00
2023-07-01T01:53:59.537Z,1249.00
2023-07-01T01:54:59.511Z,1273.00
2023-07-01T01:55:59.519Z,1270.00
2023-07-01T01:56:59.525Z,1247.00
2023-07-01T01:57:59.522Z,1268.00
2023-07-01T01:58:59.551Z,1235.00
2023-07-01T01:59:59.658Z,1242.00
2023-07-01T02:00:59.539Z,1245.00
2023-07-01T02:01:59.691Z,1236.00
2023-07-01T02:02:59.674Z,1237.00
2023-07-01T02:03:59.796Z,1241.00
2023-07-01T02:04:59.736Z,1234.00
2023-07-01T02:05:59.641Z,1228.00
2023-07-01T02:06:59.947Z,1226.00
2023-07-01T02:07:59.712Z,1243.00
2023-07-01T02:08:59.655Z,1227.00
2023-07-01T02:09:59.802Z,1234.00
2023-07-01T02:10:59.734Z,1216.00
2023-07-01T02:11:59.914Z,1224.00
2023-07-01T02:12:59.729Z,1219.00
2023-07-01T02:13:59.775Z,1229.00
2023-07-01T02:14:59.786Z,1220.00
2023-07-01T02:15:59.791Z,1213.00
2023-07-01T02:16:59.900Z,1224.00
2023-07-01T02:17:59.834Z,1219.00
2023-07-01T02:18:59.809Z,1219.00
2023-07-01T02:19:59.859Z,1212.00
2023-07-01T02:20:59.867Z,1214.00
2023-07-01T02:21:59.922Z,1216.00
2023-07-01T02:22:59.876Z,1204.00
2023-07-01T02:23:59.897Z,1210.00
2023-07-01T02:24:59.897Z,1215.00
2023-07-01T02:25:59.886Z,1221.00
2023-07-01T02:26:59.902Z,1209.00
2023-07-01T02:27:59.937Z,1213.00
2023-07-01T02:28:59.944Z,1202.00
2023-07-01T02:29:59.959Z,1196.00
2023-07-01T02:30:59.982Z,1202.00
2023-07-01T02:32:00.422Z,1205.00
2023-07-01T02:32:59.968Z,1203.00
2023-07-01T02:33:59.975Z,1205.00
2023-07-01T02:34:59.993Z,1203.00
2023-07-01T02:35:59.989Z,1188.00
2023-07-01T02:37:00.398Z,1181.00
2023-07-01T02:38:00.013Z,1208.00
2023-07-01T02:38:59.983Z,1180.00
2023-07-01T02:40:00.007Z,1182.00
2023-07-01T02:40:59.960Z,1192.00
2023-07-01T02:42:00.412Z,1191.00
2023-07-01T02:42:59.987Z,1193.00
2023-07-01T02:43:59.972Z,1187.00
2023-07-01T02:45:00.004Z,1187.00
2023-07-01T02:45:59.993Z,1193.00
2023-07-01T02:46:59.965Z,1190.00
2023-07-01T02:48:00.019Z,1202.00
2023-07-01T02:48:59.980Z,1184.00
2023-07-01T02:49:59.993Z,1188.00
2023-07-01T02:50:59.957Z,1182.00
2023-07-01T02:51:59.983Z,1184.00
2023-07-01T02:52:59.982Z,1176.00
2023-07-01T02:54:00.054Z,1177.00
2023-07-01T02:54:59.960Z,1190.00
2023-07-01T02:55:59.979Z,1178.00
2023-07-01T02:56:59.958Z,1188.00
2023-07-01T02:57:59.944Z,1192.00
2023-07-01T02:58:59.930Z,1197.00
2023-07-01T02:59:59.909Z,1177.00
2023-07-01T03:00:59.947Z,1181.00
2023-07-01T03:02:00.065Z,1178.00
2023-07-01T03:02:59.983Z,1169.00
2023-07-01T03:04:05.663Z,1181.00
2023-07-01T03:05:01.002Z,1182.00
2023-07-01T03:05:59.961Z,1178.00
2023-07-01T03:06:59.939Z,1180.00
2023-07-01T03:07:59.974Z,1180.00
2023-07-01T03:08:59.931Z,1181.00
2023-07-01T03:09:59.943Z,1169.00
2023-07-01T03:10:59.934Z,1172.00
2023-07-01T03:11:59.954Z,1182.00
2023-07-01T03:12:59.971Z,1164.00
2023-07-01T03:13:59.946Z,1162.00
2023-07-01T03:14:59.925Z,1168.00
2023-07-01T03:16:00.093Z,1158.00
2023-07-01T03:17:00.024Z,1165.00
2023-07-01T03:17:59.996Z,1156.00
2023-07-01T03:18:59.918Z,1154.00
2023-07-01T03:19:59.900Z,1139.00
2023-07-01T03:20:59.861Z,1160.00
2023-07-01T03:21:59.855Z,1141.00
2023-07-01T03:22:59.947Z,1145.00
2023-07-01T03:23:59.872Z,1144.00
2023-07-01T03:24:59.848Z,1140.00
2023-07-01T03:25:59.825Z,1147.00
2023-07-01T03:26:59.818Z,1120.00
2023-07-01T03:27:59.980Z,1130.00
2023-07-01T03:28:59.878Z,1135.00
2023-07-01T03:29:59.805Z,1128.00
2023-07-01T03:30:59.831Z,1127.00
2023-07-01T03:31:59.871Z,1130.00
2023-07-01T03:33:00.056Z,1127.00
2023-07-01T03:33:59.807Z,1122.00
2023-07-01T03:34:59.820Z,1130.00
2023-07-01T03:35:59.768Z,1126.00
2023-07-01T03:36:59.777Z,1127.00
2023-07-01T03:37:59.960Z,1115.00
2023-07-01T03:38:59.800Z,1121.00
2023-07-01T03:39:59.759Z,1119.00
2023-07-01T03:41:00.425Z,1095.00
2023-07-01T03:41:59.754Z,1113.00
2023-07-01T03:43:00.013Z,1114.00
2023-07-01T03:43:59.779Z,1119.00
2023-07-01T03:44:59.788Z,1105.00
2023-07-01T03:45:59.874Z,1110.00
2023-07-01T03:46:59.801Z,1115.00
2023-07-01T03:47:59.962Z,1101.00
2023-07-01T03:48:59.811Z,1117.00
2023-07-01T03:49:59.829Z,1118.00
2023-07-01T03:50:59.792Z,1114.00
2023-07-01T03:51:59.845Z,1104.00
2023-07-01T03:52:59.795Z,1111.00
2023-07-01T03:53:59.803Z,1100.00
2023-07-01T03:54:59.777Z,1103.00
2023-07-01T03:55:59.795Z,1101.00
2023-07-01T03:56:59.823Z,1092.00
2023-07-01T03:57:59.798Z,1103.00
2023-07-01T03:58:59.801Z,1091.00
2023-07-01T03:59:59.777Z,1102.00
2023-07-01T04:00:59.867Z,1102.00
2023-07-01T04:01:59.811Z,1108.00
2023-07-01T04:02:59.871Z,1094.00
2023-07-01T04:03:59.824Z,1095.00
2023-07-01T04:04:59.934Z,1096.00
2023-07-01T04:05:59.786Z,1090.00
2023-07-01T04:06:59.825Z,1093.00
2023-07-01T04:07:59.795Z,1094.00
2023-07-01T04:08:59.849Z,1089.00
2023-07-01T04:09:59.818Z,1086.00
2023-07-01T04:11:01.263Z,1102.00
2023-07-01T04:11:59.834Z,1100.00
2023-07-01T04:12:59.790Z,1094.00
2023-07-01T04:13:59.797Z,1093.00
2023-07-01T04:14:59.811Z,1078.00
2023-07-01T04:15:59.789Z,1087.00
2023-07-01T04:16:59.803Z,1093.00
2023-07-01T04:17:59.846Z,1073.00
2023-07-01T04:18:59.772Z,1081.00
2023-07-01T04:19:59.815Z,1073.00
2023-07-01T04:20:59.757Z,1082.00
2023-07-01T04:21:59.777Z,1081.00
2023-07-01T04:23:00.958Z,1071.00
2023-07-01T04:23:59.729Z,1072.00
2023-07-01T04:24:59.762Z,1075.00
2023-07-01T04:25:59.700Z,1075.00
2023-07-01T04:26:59.722Z,1078.00
2023-07-01T04:27:59.916Z,1076.00
2023-07-01T04:28:59.702Z,1080.00
2023-07-01T04:29:59.731Z,1074.00
2023-07-01T04:30:59.693Z,1079.00
2023-07-01T04:31:59.655Z,1064.00
2023-07-01T04:33:00.044Z,1069.00
2023-07-01T04:33:59.654Z,1081.00
2023-07-01T04:34:59.665Z,1068.00
2023-07-01T04:35:59.658Z,1068.00
2023-07-01T04:36:59.668Z,1058.00
2023-07-01T04:37:59.970Z,1062.00
2023-07-01T04:38:59.614Z,1068.00
2023-07-01T04:39:59.619Z,1068.00
2023-07-01T04:40:59.632Z,1074.00
2023-07-01T04:41:59.609Z,1073.00
2023-07-01T04:42:59.981Z,1069.00
2023-07-01T04:43:59.613Z,1066.00
2023-07-01T04:44:59.585Z,1069.00
2023-07-01T04:45:59.558Z,1068.00
2023-07-01T04:46:59.632Z,1078.00
2023-07-01T04:48:00.069Z,1074.00
2023-07-01T04:48:59.608Z,1072.00
2023-07-01T04:49:59.550Z,1071.00
2023-07-01T04:50:59.546Z,1067.00
2023-07-01T04:51:59.577Z,1086.00
2023-07-01T04:52:59.536Z,1078.00
2023-07-01T04:53:59.535Z,1063.00
2023-07-01T04:54:59.556Z,1064.00
2023-07-01T04:55:59.561Z,1062.00
2023-07-01T04:56:59.568Z,1076.00
2023-07-01T04:57:59.975Z,1058.00
2023-07-01T04:58:59.522Z,1050.00
2023-07-01T04:59:59.567Z,1057.00
2023-07-01T05:00:59.557Z,1055.00
2023-07-01T05:01:59.621Z,1059.00
2023-07-01T05:03:00.650Z,1052.00
2023-07-01T05:03:59.554Z,1060.00
2023-07-01T05:04:59.609Z,1071.00
2023-07-01T05:05:59.456Z,1069.00
2023-07-01T05:06:59.458Z,1076.00
2023-07-01T05:07:59.509Z,1075.00
2023-07-01T05:08:59.441Z,1074.00
2023-07-01T05:09:59.451Z,1074.00
2023-07-01T05:10:59.415Z,1071.00
2023-07-01T05:11:59.455Z,1060.00
2023-07-01T05:12:59.464Z,1081.00
2023-07-01T05:13:59.413Z,1067.00
2023-07-01T05:14:59.389Z,1074.00
2023-07-01T05:15:59.426Z,1067.00
2023-07-01T05:16:59.431Z,1076.00
2023-07-01T05:17:59.529Z,1081.00
2023-07-01T05:18:59.343Z,1062.00
2023-07-01T05:19:59.366Z,1040.00
2023-07-01T05:20:59.364Z,1060.00
2023-07-01T05:21:59.334Z,1061.00
2023-07-01T05:22:59.463Z,1052.00
2023-07-01T05:23:59.336Z,1047.00
2023-07-01T05:24:59.353Z,1033.00
2023-07-01T05:25:59.278Z,1039.00
2023-07-01T05:26:59.363Z,1034.00
2023-07-01T05:27:59.553Z,1042.00
2023-07-01T05:28:59.287Z,1029.00
2023-07-01T05:29:59.326Z,1037.00
2023-07-01T05:30:59.380Z,1028.00
2023-07-01T05:31:59.281Z,1029.00
2023-07-01T05:32:59.328Z,1044.00
2023-07-01T05:33:59.251Z,1031.00
2023-07-01T05:34:59.246Z,1041.00
2023-07-01T05:35:59.245Z,1034.00
2023-07-01T05:36:59.244Z,1034.00
2023-07-01T05:37:59.262Z,1021.00
2023-07-01T05:38:59.246Z,1028.00
2023-07-01T05:39:59.230Z,1026.00
2023-07-01T05:40:59.209Z,1021.00
2023-07-01T05:41:59.217Z,1048.00
2023-07-01T05:42:59.213Z,1042.00
2023-07-01T05:44:00.289Z,1043.00
2023-07-01T05:44:59.200Z,1046.00
2023-07-01T05:45:59.206Z,1041.00
2023-07-01T05:46:59.198Z,1049.00
2023-07-01T05:47:59.219Z,1047.00
2023-07-01T05:48:59.148Z,1049.00
2023-07-01T05:49:59.203Z,1027.00
2023-07-01T05:50:59.174Z,1020.00
2023-07-01T05:51:59.135Z,1017.00
2023-07-01T05:52:59.147Z,1023.00
2023-07-01T05:53:59.134Z,982.00
2023-07-01T05:54:59.136Z,1005.00
2023-07-01T05:55:59.129Z,1011.00
2023-07-01T05:56:59.085Z,1002.00
2023-07-01T05:57:59.098Z,996.00
2023-07-01T05:58:59.103Z,1001.00
2023-07-01T05:59:59.116Z,998.00
2023-07-01T06:00:59.088Z,998.00
2023-07-01T06:01:59.132Z,996.00
2023-07-01T06:02:59.113Z,995.00
2023-07-01T06:03:59.077Z,1023.00
2023-07-01T06:04:59.163Z,1007.00
2023-07-01T06:05:59.065Z,982.00
2023-07-01T06:06:59.045Z,972.00
2023-07-01T06:07:59.087Z,970.00
2023-07-01T06:08:59.016Z,971.00
2023-07-01T06:09:59.982Z,963.00
2023-07-01T06:10:58.999Z,994.00
2023-07-01T06:11:59.021Z,971.00
2023-07-01T06:12:59.080Z,964.00
2023-07-01T06:13:58.977Z,974.00
2023-07-01T06:14:58.990Z,965.00
2023-07-01T06:15:58.967Z,955.00
2023-07-01T06:16:59.008Z,953.00
2023-07-01T06:17:58.961Z,955.00
2023-07-01T06:18:58.986Z,963.00
2023-07-01T06:19:58.959Z,963.00
2023-07-01T06:20:58.926Z,952.00
2023-07-01T06:21:58.952Z,974.00
2023-07-01T06:22:58.915Z,974.00
2023-07-01T06:23:58.900Z,963.00
2023-07-01T06:24:58.923Z,964.00
2023-07-01T06:25:58.892Z,954.00
2023-07-01T06:26:58.904Z,963.00
2023-07-01T06:27:58.901Z,963.00
2023-07-01T06:28:58.898Z,955.00
2023-07-01T06:29:58.884Z,968.00
2023-07-01T06:30:58.928Z,963.00
2023-07-01T06:31:58.903Z,938.00
2023-07-01T06:32:58.951Z,960.00
2023-07-01T06:33:59.495Z,964.00
2023-07-01T06:34:58.872Z,945.00
2023-07-01T06:35:58.843Z,947.00
2023-07-01T06:36:58.898Z,934.00
2023-07-01T06:37:58.868Z,929.00
2023-07-01T06:38:58.934Z,930.00
2023-07-01T06:39:58.803Z,867.00
2023-07-01T06:40:58.815Z,838.00
2023-07-01T06:41:58.879Z,869.00
2023-07-01T06:42:58.837Z,899.00
2023-07-01T06:43:58.805Z,916.00
2023-07-01T06:44:58.790Z,917.00
2023-07-01T06:45:58.818Z,919.00
2023-07-01T06:46:58.774Z,911.00
2023-07-01T06:47:58.805Z,905.00
2023-07-01T06:48:58.766Z,894.00
2023-07-01T06:49:58.738Z,893.00
2023-07-01T06:50:58.739Z,901.00
2023-07-01T06:51:58.748Z,917.00
2023-07-01T06:52:58.740Z,897.00
2023-07-01T06:53:58.753Z,886.00
2023-07-01T06:54:58.746Z,870.00
2023-07-01T06:55:58.710Z,856.00
2023-07-01T06:56:58.691Z,868.00
2023-07-01T06:57:58.702Z,862.00
2023-07-01T06:58:58.679Z,857.00
2023-07-01T06:59:58.675Z,864.00
2023-07-01T07:00:58.796Z,868.00
2023-07-01T07:01:58.679Z,870.00
2023-07-01T07:02:58.723Z,866.00
2023-07-01T07:03:58.637Z,865.00
2023-07-01T07:04:58.656Z,860.00
2023-07-01T07:05:58.621Z,866.00
2023-07-01T07:06:58.632Z,870.00
2023-07-01T07:07:58.645Z,856.00
2023-07-01T07:08:58.625Z,842.00
2023-07-01T07:09:58.573Z,825.00
2023-07-01T07:10:58.619Z,820.00
2023-07-01T07:11:58.566Z,825.00
2023-07-01T07:12:58.625Z,819.00
2023-07-01T07:13:58.588Z,825.00
2023-07-01T07:14:58.576Z,813.00
2023-07-01T07:15:58.590Z,744.00
2023-07-01T07:16:58.597Z,781.00
2023-07-01T07:17:58.658Z,793.00
2023-07-01T07:18:58.529Z,808.00
2023-07-01T07:19:58.530Z,816.00
2023-07-01T07:20:58.538Z,813.00
2023-07-01T07:21:58.529Z,825.00
2023-07-01T07:22:58.532Z,813.00
2023-07-01T07:23:59.550Z,808.00
2023-07-01T07:24:58.821Z,802.00
2023-07-01T07:25:58.729Z,801.00
2023-07-01T07:26:58.739Z,782.00
2023-07-01T07:27:58.774Z,802.00
2023-07-01T07:28:58.739Z,786.00
2023-07-01T07:29:58.794Z,778.00
2023-07-01T07:30:58.759Z,784.00
2023-07-01T07:31:58.745Z,753.00
2023-07-01T07:32:58.757Z,761.00
2023-07-01T07:33:58.767Z,750.00
2023-07-01T07:34:58.766Z,778.00
2023-07-01T07:35:58.770Z,689.00
2023-07-01T07:36:58.782Z,643.00
2023-07-01T07:37:58.819Z,630.00
2023-07-01T07:38:58.806Z,634.00
2023-07-01T07:39:58.861Z,600.00
2023-07-01T07:40:58.894Z,614.00
2023-07-01T07:41:58.904Z,630.00
2023-07-01T07:42:58.935Z,651.00
2023-07-01T07:43:58.920Z,663.00
2023-07-01T07:44:58.908Z,668.00
2023-07-01T07:45:58.946Z,696.00
2023-07-01T07:46:59.046Z,713.00
2023-07-01T07:47:59.033Z,670.00
2023-07-01T07:48:58.979Z,661.00
2023-07-01T07:49:58.977Z,675.00
2023-07-01T07:50:58.992Z,684.00
2023-07-01T07:51:58.966Z,692.00
2023-07-01T07:52:58.992Z,673.00
2023-07-01T07:53:58.968Z,656.00
2023-07-01T07:54:59.011Z,653.00
2023-07-01T07:55:59.023Z,652.00
2023-07-01T07:56:59.040Z,664.00
2023-07-01T07:57:59.042Z,662.00
2023-07-01T07:58:59.029Z,660.00
2023-07-01T07:59:59.010Z,639.00
2023-07-01T08:00:59.054Z,629.00
2023-07-01T08:01:59.164Z,639.00
2023-07-01T08:02:59.081Z,642.00
2023-07-01T08:03:59.253Z,652.00
2023-07-01T08:04:59.204Z,662.00
2023-07-01T08:05:59.114Z,651.00
2023-07-01T08:06:59.181Z,642.00
2023-07-01T08:07:59.138Z,657.00
2023-07-01T08:08:59.206Z,657.00
2023-07-01T08:09:59.132Z,645.00
2023-07-01T08:10:59.156Z,655.00
2023-07-01T08:11:59.172Z,664.00
2023-07-01T08:12:59.215Z,662.00
2023-07-01T08:13:59.188Z,657.00
2023-07-01T08:14:59.202Z,661.00
2023-07-01T08:15:59.235Z,656.00
2023-07-01T08:16:59.257Z,659.00
2023-07-01T08:17:59.293Z,652.00
2023-07-01T08:18:59.331Z,659.00
2023-07-01T08:19:59.266Z,657.00
2023-07-01T08:20:59.248Z,661.00
2023-07-01T08:21:59.256Z,653.00
2023-07-01T08:22:59.311Z,654.00
2023-07-01T08:23:59.277Z,658.00
2023-07-01T08:24:59.246Z,657.00
2023-07-01T08:25:59.227Z,666.00
2023-07-01T08:26:59.270Z,653.00
2023-07-01T08:27:59.298Z,660.00
2023-07-01T08:28:59.286Z,675.00
2023-07-01T08:29:59.276Z,673.00
2023-07-01T08:30:59.336Z,663.00
2023-07-01T08:31:59.266Z,630.00
2023-07-01T08:32:59.398Z,618.00
2023-07-01T08:33:59.273Z,620.00
2023-07-01T08:34:59.315Z,638.00
2023-07-01T08:35:59.321Z,628.00
2023-07-01T08:37:00.864Z,633.00
2023-07-01T08:37:59.340Z,636.00
2023-07-01T08:38:59.283Z,649.00
2023-07-01T08:39:59.306Z,646.00
2023-07-01T08:40:59.318Z,640.00
2023-07-01T08:41:59.307Z,639.00
2023-07-01T08:42:59.269Z,647.00
2023-07-01T08:43:59.286Z,647.00
2023-07-01T08:44:59.284Z,648.00
2023-07-01T08:45:59.332Z,643.00
2023-07-01T08:46:59.259Z,647.00
2023-07-01T08:47:59.326Z,654.00
2023-07-01T08:48:59.230Z,643.00
2023-07-01T08:50:00.511Z,638.00
2023-07-01T08:50:59.230Z,639.00
2023-07-01T08:51:59.242Z,639.00
2023-07-01T08:52:59.199Z,623.00
2023-07-01T08:53:59.210Z,639.00
2023-07-01T08:54:59.228Z,648.00
2023-07-01T08:55:59.221Z,650.00
2023-07-01T08:56:59.188Z,650.00
2023-07-01T08:57:59.210Z,654.00
2023-07-01T08:58:59.179Z,655.00
2023-07-01T08:59:59.191Z,663.00
2023-07-01T09:00:59.153Z,659.00
2023-07-01T09:01:59.190Z,652.00
2023-07-01T09:02:59.184Z,658.00
2023-07-01T09:03:59.209Z,661.00
2023-07-01T09:04:59.324Z,667.00
2023-07-01T09:05:59.144Z,666.00
2023-07-01T09:06:59.141Z,673.00
2023-07-01T09:07:59.547Z,674.00
2023-07-01T09:08:59.107Z,687.00
2023-07-01T09:09:59.136Z,696.00
2023-07-01T09:10:59.176Z,679.00
2023-07-01T09:11:59.109Z,682.00
2023-07-01T09:12:59.144Z,691.00
2023-07-01T09:13:59.102Z,727.00
2023-07-01T09:14:59.149Z,718.00
2023-07-01T09:15:59.180Z,702.00
2023-07-01T09:16:59.122Z,699.00
2023-07-01T09:17:59.156Z,711.00
2023-07-01T09:18:59.218Z,723.00
2023-07-01T09:19:59.161Z,715.00
2023-07-01T09:20:59.118Z,706.00
2023-07-01T09:21:59.132Z,705.00
2023-07-01T09:22:59.137Z,701.00
2023-07-01T09:23:59.151Z,699.00
2023-07-01T09:24:59.187Z,691.00
2023-07-01T09:25:59.161Z,695.00
2023-07-01T09:26:59.157Z,688.00
2023-07-01T09:27:59.170Z,692.00
2023-07-01T09:28:59.186Z,692.00
2023-07-01T09:29:59.189Z,700.00
2023-07-01T09:30:59.178Z,699.00
2023-07-01T09:31:59.254Z,683.00
2023-07-01T09:32:59.221Z,695.00
2023-07-01T09:33:59.179Z,708.00
2023-07-01T09:34:59.180Z,691.00
2023-07-01T09:35:59.204Z,687.00
2023-07-01T09:36:59.204Z,691.00
2023-07-01T09:37:59.209Z,695.00
2023-07-01T09:38:59.217Z,693.00
2023-07-01T09:39:59.188Z,681.00
2023-07-01T09:40:59.237Z,676.00
2023-07-01T09:41:59.254Z,683.00
2023-07-01T09:42:59.562Z,683.00
2023-07-01T09:43:59.198Z,671.00
2023-07-01T09:44:59.191Z,689.00
2023-07-01T09:45:59.216Z,691.00
2023-07-01T09:46:59.195Z,691.00
2023-07-01T09:47:59.277Z,703.00
2023-07-01T09:48:59.224Z,684.00
2023-07-01T09:49:59.187Z,686.00
2023-07-01T09:50:59.239Z,678.00
2023-07-01T09:51:59.206Z,677.00
2023-07-01T09:52:59.215Z,675.00
2023-07-01T09:53:59.208Z,672.00
2023-07-01T09:54:59.224Z,677.00
2023-07-01T09:55:59.235Z,673.00
2023-07-01T09:56:59.232Z,686.00
2023-07-01T09:57:59.589Z,681.00
2023-07-01T09:58:59.202Z,684.00
2023-07-01T09:59:59.220Z,696.00
2023-07-01T10:00:59.273Z,712.00
2023-07-01T10:01:59.272Z,698.00
2023-07-01T10:02:59.373Z,694.00
2023-07-01T10:03:59.405Z,680.00
2023-07-01T10:04:59.290Z,679.00
2023-07-01T10:05:59.250Z,688.00
2023-07-01T10:06:59.271Z,699.00
2023-07-01T10:07:59.586Z,696.00
2023-07-01T10:08:59.289Z,707.00
2023-07-01T10:09:59.267Z,712.00
2023-07-01T10:10:59.262Z,731.00
2023-07-01T10:11:59.284Z,734.00
2023-07-01T10:12:59.545Z,728.00
2023-07-01T10:13:59.380Z,720.00
2023-07-01T10:14:59.265Z,700.00
2023-07-01T10:15:59.260Z,700.00
2023-07-01T10:16:59.426Z,703.00
2023-07-01T10:17:59.625Z,709.00
2023-07-01T10:18:59.284Z,705.00
2023-07-01T10:19:59.297Z,699.00
2023-07-01T10:20:59.302Z,698.00
2023-07-01T10:21:59.317Z,695.00
2023-07-01T10:22:59.628Z,693.00
2023-07-01T10:23:59.358Z,684.00
2023-07-01T10:24:59.376Z,675.00
2023-07-01T10:25:59.317Z,686.00
2023-07-01T10:26:59.332Z,682.00
2023-07-01T10:27:59.355Z,678.00
2023-07-01T10:28:59.375Z,689.00
2023-07-01T10:29:59.296Z,672.00
2023-07-01T10:30:59.323Z,698.00
2023-07-01T10:31:59.385Z,690.00
2023-07-01T10:32:59.345Z,713.00
2023-07-01T10:33:59.301Z,703.00
2023-07-01T10:34:59.337Z,709.00
2023-07-01T10:35:59.322Z,700.00
2023-07-01T10:36:59.317Z,675.00
2023-07-01T10:37:59.342Z,670.00
2023-07-01T10:38:59.334Z,671.00
2023-07-01T10:40:00.075Z,667.00
2023-07-01T10:40:59.313Z,672.00
2023-07-01T10:41:59.357Z,662.00
2023-07-01T10:42:59.356Z,661.00
2023-07-01T10:43:59.340Z,661.00
2023-07-01T10:44:59.368Z,664.00
2023-07-01T10:45:59.324Z,671.00
2023-07-01T10:46:59.443Z,668.00
2023-07-01T10:47:59.473Z,659.00
2023-07-01T10:48:59.378Z,658.00
2023-07-01T10:49:59.350Z,663.00
2023-07-01T10:50:59.344Z,677.00
2023-07-01T10:51:59.333Z,664.00
2023-07-01T10:52:59.343Z,650.00
2023-07-01T10:53:59.449Z,641.00
2023-07-01T10:54:59.382Z,633.00
2023-07-01T10:55:59.339Z,623.00
2023-07-01T10:56:59.366Z,620.00
2023-07-01T10:57:59.379Z,613.00
2023-07-01T10:58:59.381Z,629.00
2023-07-01T10:59:59.374Z,623.00
2023-07-01T11:00:59.374Z,624.00
2023-07-01T11:01:59.416Z,618.00
2023-07-01T11:02:59.627Z,622.00
2023-07-01T11:03:59.632Z,628.00
2023-07-01T11:04:59.389Z,624.00
2023-07-01T11:05:59.480Z,632.00
2023-07-01T11:06:59.417Z,635.00
2023-07-01T11:07:59.580Z,639.00
2023-07-01T11:08:59.418Z,636.00
2023-07-01T11:09:59.485Z,643.00
2023-07-01T11:10:59.370Z,644.00
2023-07-01T11:11:59.426Z,644.00
2023-07-01T11:12:59.405Z,646.00
2023-07-01T11:13:59.380Z,644.00
2023-07-01T11:14:59.390Z,643.00
2023-07-01T11:15:59.399Z,646.00
2023-07-01T11:16:59.399Z,652.00
2023-07-01T11:17:59.462Z,653.00
2023-07-01T11:18:59.408Z,646.00
2023-07-01T11:19:59.422Z,648.00
2023-07-01T11:20:59.431Z,646.00
2023-07-01T11:21:59.385Z,638.00
2023-07-01T11:22:59.397Z,638.00
2023-07-01T11:23:59.453Z,642.00
2023-07-01T11:24:59.451Z,641.00
2023-07-01T11:25:59.420Z,640.00
2023-07-01T11:26:59.425Z,643.00
2023-07-01T11:27:59.441Z,643.00
2023-07-01T11:28:59.490Z,648.00
2023-07-01T11:29:59.474Z,647.00
2023-07-01T11:30:59.503Z,651.00
2023-07-01T11:31:59.579Z,649.00
2023-07-01T11:32:59.538Z,646.00
2023-07-01T11:33:59.511Z,655.00
2023-07-01T11:34:59.596Z,648.00
2023-07-01T11:35:59.563Z,647.00
2023-07-01T11:36:59.575Z,641.00
2023-07-01T11:37:59.557Z,643.00
2023-07-01T11:38:59.548Z,636.00
2023-07-01T11:39:59.563Z,642.00
2023-07-01T11:40:59.563Z,639.00
2023-07-01T11:41:59.587Z,645.00
2023-07-01T11:42:59.576Z,647.00
2023-07-01T11:43:59.598Z,648.00
2023-07-01T11:44:59.590Z,653.00
2023-07-01T11:45:59.739Z,653.00
2023-07-01T11:46:59.620Z,655.00
2023-07-01T11:47:59.688Z,649.00
2023-07-01T11:48:59.624Z,649.00
2023-07-01T11:49:59.664Z,626.00
2023-07-01T11:50:59.700Z,608.00
2023-07-01T11:51:59.658Z,609.00
2023-07-01T11:52:59.701Z,601.00
2023-07-01T11:53:59.737Z,586.00
2023-07-01T11:54:59.710Z,582.00
2023-07-01T11:55:59.755Z,572.00
2023-07-01T11:56:59.729Z,575.00
2023-07-01T11:57:59.727Z,558.00
2023-07-01T11:59:01.545Z,555.00
2023-07-01T12:00:00.177Z,544.00
2023-07-01T12:00:59.819Z,546.00
2023-07-01T12:01:59.886Z,529.00
2023-07-01T12:02:59.885Z,530.00
2023-07-01T12:03:59.936Z,527.00
2023-07-01T12:05:00.026Z,537.00
2023-07-01T12:05:59.946Z,544.00
2023-07-01T12:07:00.545Z,548.00
2023-07-01T12:08:00.008Z,553.00
2023-07-01T12:09:08.151Z,522.00
2023-07-01T12:10:01.060Z,492.00
2023-07-01T12:11:00.038Z,483.00
2023-07-01T12:11:59.986Z,486.00
2023-07-01T12:13:00.384Z,498.00
2023-07-01T12:13:59.973Z,503.00
2023-07-01T12:15:00.028Z,505.00
2023-07-01T12:16:00.043Z,507.00
2023-07-01T12:16:59.977Z,516.00
2023-07-01T12:18:00.036Z,503.00